LiveATC.Net - Listen to live air traffic control over the Internet! Contact LiveATC.net for advertising information


ICAO: ENBR  IATA: BGO   Airport: Bergen Airport - Flesland
City: Bergen
Country: Norway   Continent: Europe
ENBR METAR Weather: ENBR 190720Z 15006KT CAVOK 09/00 Q1025 NOSIG RMK WIND 1200FT 15014KT
ENBR Flight Activity (FlightAware)
ENBR Gnd/Twr/Radar
Feed Status: DOWN
Last heard on: 2013-08-22 14:36:04 (239 days 17 hours 10 minutes ago)
ENBR Gnd/Twr/Radar Audio Archives
FacilityFrequency
Flesland Arrival125.000
Flesland Director118.850
Flesland Ground121.900
Flesland Radar121.000
Flesland Tower119.100
Stavanger Control124.700


NOTICE

Unauthorized use prohibited. See LiveATC.net Terms of Service


Find LiveATC Audio Streams


Airport/ARTCC Code

Frequency
(e.g., 124.400, 128.75)
Site-wide search

Browse LiveATC Feeds
LiveATC Coverage Map
Top 50 LiveATC Feeds
Bad Weather Areas

LiveATC FAQ
Offer a LiveATC Feed
Contact LiveATC.net
Press Inquiries

LiveATC on iPhone
LiveATC on Android

LiveATC Mobile
(Mobile browser)

ATC Audio Archives
Interesting Recordings

LiveATC Forums


Home Page
About LiveATC.net
Make a Donation
LiveATC Bookstore

Terms of Use
Privacy Policy

ATC/Radar Sites
U.S. ARTCC Freqs
Canadian Air Freqs

AIRMETs/SIGMETs

FAA Airport Status
Nat'l Airspace Status
Arrival Demand Charts


Server Software By:
Icecast.org
Liquidsoap

Please make a donation to help us keep growing!